sensor_id;sensor_type;location;lat;lon;timestamp;P1;durP1;ratioP1;P2;durP2;ratioP2
4049;SDS011;2039;50.894;6.888;2022-07-10T00:01:58;70.00;;;3.80;;
4049;SDS011;2039;50.894;6.888;2022-07-10T00:04:24;69.07;;;5.17;;
4049;SDS011;2039;50.894;6.888;2022-07-10T00:06:53;67.50;;;4.30;;
4049;SDS011;2039;50.894;6.888;2022-07-10T00:09:21;66.00;;;4.00;;
4049;SDS011;2039;50.894;6.888;2022-07-10T00:11:50;68.90;;;4.03;;
4049;SDS011;2039;50.894;6.888;2022-07-10T00:14:16;66.83;;;3.97;;
4049;SDS011;2039;50.894;6.888;2022-07-10T00:16:49;67.30;;;4.50;;
4049;SDS011;2039;50.894;6.888;2022-07-10T00:19:15;70.43;;;3.90;;
4049;SDS011;2039;50.894;6.888;2022-07-10T00:21:40;65.97;;;4.67;;
4049;SDS011;2039;50.894;6.888;2022-07-10T00:24:06;67.50;;;4.40;;
4049;SDS011;2039;50.894;6.888;2022-07-10T00:26:32;68.90;;;5.30;;
4049;SDS011;2039;50.894;6.888;2022-07-10T00:28:57;67.17;;;4.63;;
4049;SDS011;2039;50.894;6.888;2022-07-10T00:31:23;68.50;;;4.57;;
4049;SDS011;2039;50.894;6.888;2022-07-10T00:33:49;72.10;;;5.77;;
4049;SDS011;2039;50.894;6.888;2022-07-10T00:36:19;67.73;;;5.53;;
4049;SDS011;2039;50.894;6.888;2022-07-10T00:38:45;68.87;;;6.70;;
4049;SDS011;2039;50.894;6.888;2022-07-10T00:41:13;70.30;;;4.90;;
4049;SDS011;2039;50.894;6.888;2022-07-10T00:43:53;70.53;;;5.67;;
4049;SDS011;2039;50.894;6.888;2022-07-10T00:46:23;66.90;;;4.63;;
4049;SDS011;2039;50.894;6.888;2022-07-10T00:48:51;66.50;;;5.83;;
4049;SDS011;2039;50.894;6.888;2022-07-10T00:51:18;67.57;;;5.60;;
4049;SDS011;2039;50.894;6.888;2022-07-10T00:53:46;68.10;;;6.50;;
4049;SDS011;2039;50.894;6.888;2022-07-10T00:56:16;67.07;;;5.40;;
4049;SDS011;2039;50.894;6.888;2022-07-10T00:58:44;70.50;;;6.10;;
4049;SDS011;2039;50.894;6.888;2022-07-10T01:01:11;68.37;;;6.17;;
4049;SDS011;2039;50.894;6.888;2022-07-10T01:03:37;66.00;;;4.00;;
4049;SDS011;2039;50.894;6.888;2022-07-10T01:06:03;67.07;;;4.70;;
4049;SDS011;2039;50.894;6.888;2022-07-10T01:08:29;67.10;;;5.10;;
4049;SDS011;2039;50.894;6.888;2022-07-10T01:10:58;67.87;;;5.10;;
4049;SDS011;2039;50.894;6.888;2022-07-10T01:13:24;68.27;;;6.83;;
4049;SDS011;2039;50.894;6.888;2022-07-10T01:15:49;67.00;;;5.20;;
4049;SDS011;2039;50.894;6.888;2022-07-10T01:18:16;68.17;;;5.67;;
4049;SDS011;2039;50.894;6.888;2022-07-10T01:20:42;67.57;;;5.73;;
4049;SDS011;2039;50.894;6.888;2022-07-10T01:23:08;67.77;;;5.90;;
4049;SDS011;2039;50.894;6.888;2022-07-10T01:25:34;68.87;;;6.70;;
4049;SDS011;2039;50.894;6.888;2022-07-10T01:28:20;68.47;;;6.30;;
4049;SDS011;2039;50.894;6.888;2022-07-10T01:30:47;67.37;;;5.00;;
4049;SDS011;2039;50.894;6.888;2022-07-10T01:33:14;67.07;;;5.77;;
4049;SDS011;2039;50.894;6.888;2022-07-10T01:35:42;68.20;;;5.13;;
4049;SDS011;2039;50.894;6.888;2022-07-10T01:38:08;67.50;;;5.40;;
4049;SDS011;2039;50.894;6.888;2022-07-10T01:40:40;66.17;;;5.13;;
4049;SDS011;2039;50.894;6.888;2022-07-10T01:43:05;67.87;;;6.17;;
4049;SDS011;2039;50.894;6.888;2022-07-10T01:45:32;67.87;;;5.57;;
4049;SDS011;2039;50.894;6.888;2022-07-10T01:47:58;66.77;;;5.50;;
4049;SDS011;2039;50.894;6.888;2022-07-10T01:50:23;68.60;;;6.40;;
4049;SDS011;2039;50.894;6.888;2022-07-10T01:52:49;68.60;;;5.87;;
4049;SDS011;2039;50.894;6.888;2022-07-10T01:55:15;68.30;;;6.87;;
4049;SDS011;2039;50.894;6.888;2022-07-10T01:57:41;67.23;;;5.73;;
4049;SDS011;2039;50.894;6.888;2022-07-10T02:00:07;67.07;;;6.20;;
4049;SDS011;2039;50.894;6.888;2022-07-10T02:02:34;67.73;;;5.23;;
4049;SDS011;2039;50.894;6.888;2022-07-10T02:05:00;67.40;;;8.97;;
4049;SDS011;2039;50.894;6.888;2022-07-10T02:07:26;67.20;;;7.10;;
4049;SDS011;2039;50.894;6.888;2022-07-10T02:09:52;68.27;;;9.60;;
4049;SDS011;2039;50.894;6.888;2022-07-10T02:12:17;70.00;;;10.70;;
4049;SDS011;2039;50.894;6.888;2022-07-10T02:14:43;69.80;;;9.10;;
4049;SDS011;2039;50.894;6.888;2022-07-10T02:17:12;67.80;;;10.13;;
4049;SDS011;2039;50.894;6.888;2022-07-10T02:19:37;69.40;;;9.50;;
4049;SDS011;2039;50.894;6.888;2022-07-10T02:22:06;67.97;;;9.47;;
4049;SDS011;2039;50.894;6.888;2022-07-10T02:24:31;70.00;;;12.10;;
4049;SDS011;2039;50.894;6.888;2022-07-10T02:26:57;70.63;;;10.47;;
4049;SDS011;2039;50.894;6.888;2022-07-10T02:29:23;70.40;;;12.23;;
4049;SDS011;2039;50.894;6.888;2022-07-10T02:31:49;73.03;;;13.70;;
4049;SDS011;2039;50.894;6.888;2022-07-10T02:34:15;69.30;;;13.60;;
4049;SDS011;2039;50.894;6.888;2022-07-10T02:36:41;68.97;;;9.07;;
4049;SDS011;2039;50.894;6.888;2022-07-10T02:39:07;72.10;;;10.83;;
4049;SDS011;2039;50.894;6.888;2022-07-10T02:41:33;71.07;;;12.23;;
4049;SDS011;2039;50.894;6.888;2022-07-10T02:44:00;70.30;;;10.00;;
4049;SDS011;2039;50.894;6.888;2022-07-10T02:46:27;70.33;;;11.50;;
4049;SDS011;2039;50.894;6.888;2022-07-10T02:48:53;69.10;;;9.07;;
4049;SDS011;2039;50.894;6.888;2022-07-10T02:51:18;67.10;;;7.80;;
4049;SDS011;2039;50.894;6.888;2022-07-10T02:53:44;67.93;;;9.23;;
4049;SDS011;2039;50.894;6.888;2022-07-10T02:56:10;71.40;;;9.57;;
4049;SDS011;2039;50.894;6.888;2022-07-10T02:58:37;70.10;;;8.77;;
4049;SDS011;2039;50.894;6.888;2022-07-10T03:01:04;72.20;;;9.40;;
4049;SDS011;2039;50.894;6.888;2022-07-10T03:03:30;67.37;;;9.37;;
4049;SDS011;2039;50.894;6.888;2022-07-10T03:05:56;68.27;;;7.30;;
4049;SDS011;2039;50.894;6.888;2022-07-10T03:08:21;68.90;;;9.47;;
4049;SDS011;2039;50.894;6.888;2022-07-10T03:10:50;67.40;;;8.30;;
4049;SDS011;2039;50.894;6.888;2022-07-10T03:13:15;74.20;;;10.23;;
4049;SDS011;2039;50.894;6.888;2022-07-10T03:15:41;68.03;;;7.77;;
4049;SDS011;2039;50.894;6.888;2022-07-10T03:18:07;77.53;;;9.90;;
4049;SDS011;2039;50.894;6.888;2022-07-10T03:20:32;80.87;;;13.60;;
4049;SDS011;2039;50.894;6.888;2022-07-10T03:22:58;74.03;;;11.37;;
4049;SDS011;2039;50.894;6.888;2022-07-10T03:25:24;70.10;;;10.90;;
4049;SDS011;2039;50.894;6.888;2022-07-10T03:27:50;69.27;;;12.10;;
4049;SDS011;2039;50.894;6.888;2022-07-10T03:30:15;67.77;;;11.50;;
4049;SDS011;2039;50.894;6.888;2022-07-10T03:32:41;69.67;;;11.00;;
4049;SDS011;2039;50.894;6.888;2022-07-10T03:35:07;68.60;;;9.57;;
4049;SDS011;2039;50.894;6.888;2022-07-10T03:37:32;75.50;;;12.03;;
4049;SDS011;2039;50.894;6.888;2022-07-10T03:39:58;69.73;;;7.40;;
4049;SDS011;2039;50.894;6.888;2022-07-10T03:42:24;75.30;;;10.07;;
4049;SDS011;2039;50.894;6.888;2022-07-10T03:44:49;68.00;;;9.10;;
4049;SDS011;2039;50.894;6.888;2022-07-10T03:47:15;69.13;;;11.17;;
4049;SDS011;2039;50.894;6.888;2022-07-10T03:49:41;68.97;;;10.30;;
4049;SDS011;2039;50.894;6.888;2022-07-10T03:52:07;68.67;;;8.93;;
4049;SDS011;2039;50.894;6.888;2022-07-10T03:54:33;67.50;;;9.90;;
4049;SDS011;2039;50.894;6.888;2022-07-10T03:56:59;70.80;;;10.60;;
4049;SDS011;2039;50.894;6.888;2022-07-10T03:59:43;68.73;;;7.97;;
4049;SDS011;2039;50.894;6.888;2022-07-10T04:02:09;67.87;;;8.37;;
4049;SDS011;2039;50.894;6.888;2022-07-10T04:04:34;67.27;;;9.40;;
4049;SDS011;2039;50.894;6.888;2022-07-10T04:07:00;69.47;;;8.90;;
4049;SDS011;2039;50.894;6.888;2022-07-10T04:09:27;67.73;;;8.60;;
4049;SDS011;2039;50.894;6.888;2022-07-10T04:11:52;68.67;;;8.97;;
4049;SDS011;2039;50.894;6.888;2022-07-10T04:14:18;68.47;;;11.70;;
4049;SDS011;2039;50.894;6.888;2022-07-10T04:16:44;68.10;;;9.83;;
4049;SDS011;2039;50.894;6.888;2022-07-10T04:19:09;68.40;;;8.00;;
4049;SDS011;2039;50.894;6.888;2022-07-10T04:21:35;67.17;;;9.27;;
4049;SDS011;2039;50.894;6.888;2022-07-10T04:24:02;69.33;;;8.97;;
4049;SDS011;2039;50.894;6.888;2022-07-10T04:26:28;66.97;;;7.60;;
4049;SDS011;2039;50.894;6.888;2022-07-10T04:28:54;72.20;;;10.93;;
4049;SDS011;2039;50.894;6.888;2022-07-10T04:31:19;67.50;;;8.60;;
4049;SDS011;2039;50.894;6.888;2022-07-10T04:33:45;67.83;;;9.60;;
4049;SDS011;2039;50.894;6.888;2022-07-10T04:36:11;69.03;;;12.30;;
4049;SDS011;2039;50.894;6.888;2022-07-10T04:38:36;72.93;;;9.40;;
4049;SDS011;2039;50.894;6.888;2022-07-10T04:41:02;69.17;;;8.77;;
4049;SDS011;2039;50.894;6.888;2022-07-10T04:43:29;67.57;;;6.83;;
4049;SDS011;2039;50.894;6.888;2022-07-10T04:45:55;65.83;;;4.50;;
4049;SDS011;2039;50.894;6.888;2022-07-10T04:48:21;66.47;;;4.30;;
4049;SDS011;2039;50.894;6.888;2022-07-10T04:50:47;68.20;;;3.40;;
4049;SDS011;2039;50.894;6.888;2022-07-10T04:53:12;70.53;;;4.00;;
4049;SDS011;2039;50.894;6.888;2022-07-10T04:55:38;65.83;;;3.40;;
4049;SDS011;2039;50.894;6.888;2022-07-10T04:58:04;67.70;;;3.93;;
4049;SDS011;2039;50.894;6.888;2022-07-10T05:00:29;68.93;;;5.20;;
4049;SDS011;2039;50.894;6.888;2022-07-10T05:02:58;68.80;;;4.37;;
4049;SDS011;2039;50.894;6.888;2022-07-10T05:05:24;67.73;;;4.47;;
4049;SDS011;2039;50.894;6.888;2022-07-10T05:07:49;66.87;;;4.93;;
4049;SDS011;2039;50.894;6.888;2022-07-10T05:10:15;69.20;;;4.40;;
4049;SDS011;2039;50.894;6.888;2022-07-10T05:12:41;68.33;;;4.50;;
4049;SDS011;2039;50.894;6.888;2022-07-10T05:15:07;68.70;;;3.90;;
4049;SDS011;2039;50.894;6.888;2022-07-10T05:17:33;67.73;;;4.00;;
4049;SDS011;2039;50.894;6.888;2022-07-10T05:19:59;71.50;;;4.60;;
4049;SDS011;2039;50.894;6.888;2022-07-10T05:22:24;71.57;;;4.83;;
4049;SDS011;2039;50.894;6.888;2022-07-10T05:24:50;66.40;;;5.27;;
4049;SDS011;2039;50.894;6.888;2022-07-10T05:27:16;66.50;;;4.67;;
4049;SDS011;2039;50.894;6.888;2022-07-10T05:29:44;68.10;;;5.37;;
4049;SDS011;2039;50.894;6.888;2022-07-10T05:32:11;67.97;;;5.27;;
4049;SDS011;2039;50.894;6.888;2022-07-10T05:34:36;69.60;;;6.63;;
4049;SDS011;2039;50.894;6.888;2022-07-10T05:37:02;67.97;;;8.40;;
4049;SDS011;2039;50.894;6.888;2022-07-10T05:39:28;70.40;;;7.30;;
4049;SDS011;2039;50.894;6.888;2022-07-10T05:41:54;67.10;;;8.23;;
4049;SDS011;2039;50.894;6.888;2022-07-10T05:44:21;71.80;;;10.43;;
4049;SDS011;2039;50.894;6.888;2022-07-10T05:46:46;77.40;;;9.50;;
4049;SDS011;2039;50.894;6.888;2022-07-10T05:49:12;67.10;;;9.73;;
4049;SDS011;2039;50.894;6.888;2022-07-10T05:51:37;66.97;;;7.30;;
4049;SDS011;2039;50.894;6.888;2022-07-10T05:54:03;69.20;;;8.20;;
4049;SDS011;2039;50.894;6.888;2022-07-10T05:56:29;68.43;;;8.67;;
4049;SDS011;2039;50.894;6.888;2022-07-10T05:58:55;70.30;;;7.73;;
4049;SDS011;2039;50.894;6.888;2022-07-10T06:01:21;70.03;;;9.60;;
4049;SDS011;2039;50.894;6.888;2022-07-10T06:03:48;69.50;;;9.80;;
4049;SDS011;2039;50.894;6.888;2022-07-10T06:06:14;73.83;;;14.60;;
4049;SDS011;2039;50.894;6.888;2022-07-10T06:08:40;69.10;;;9.30;;
4049;SDS011;2039;50.894;6.888;2022-07-10T06:11:06;69.10;;;7.30;;
4049;SDS011;2039;50.894;6.888;2022-07-10T06:13:32;68.57;;;7.40;;
4049;SDS011;2039;50.894;6.888;2022-07-10T06:15:58;66.47;;;5.17;;
4049;SDS011;2039;50.894;6.888;2022-07-10T06:18:24;66.07;;;4.70;;
4049;SDS011;2039;50.894;6.888;2022-07-10T06:20:49;68.20;;;7.47;;
4049;SDS011;2039;50.894;6.888;2022-07-10T06:23:15;68.27;;;7.30;;
4049;SDS011;2039;50.894;6.888;2022-07-10T06:25:41;70.97;;;5.50;;
4049;SDS011;2039;50.894;6.888;2022-07-10T06:28:06;72.20;;;5.50;;
4049;SDS011;2039;50.894;6.888;2022-07-10T06:30:35;66.23;;;5.07;;
4049;SDS011;2039;50.894;6.888;2022-07-10T06:33:00;67.20;;;6.03;;
4049;SDS011;2039;50.894;6.888;2022-07-10T06:35:26;73.07;;;5.67;;
4049;SDS011;2039;50.894;6.888;2022-07-10T06:37:52;69.93;;;6.60;;
4049;SDS011;2039;50.894;6.888;2022-07-10T06:40:17;66.50;;;6.33;;
4049;SDS011;2039;50.894;6.888;2022-07-10T06:42:45;66.77;;;5.87;;
4049;SDS011;2039;50.894;6.888;2022-07-10T06:45:11;68.77;;;6.80;;
4049;SDS011;2039;50.894;6.888;2022-07-10T06:47:37;67.73;;;6.60;;
4049;SDS011;2039;50.894;6.888;2022-07-10T06:50:21;70.60;;;7.80;;
4049;SDS011;2039;50.894;6.888;2022-07-10T06:52:48;67.80;;;7.33;;
4049;SDS011;2039;50.894;6.888;2022-07-10T06:55:14;67.97;;;7.70;;
4049;SDS011;2039;50.894;6.888;2022-07-10T06:57:40;67.20;;;6.60;;
4049;SDS011;2039;50.894;6.888;2022-07-10T07:00:06;65.93;;;5.73;;
4049;SDS011;2039;50.894;6.888;2022-07-10T07:02:34;74.33;;;5.77;;
4049;SDS011;2039;50.894;6.888;2022-07-10T07:05:00;68.40;;;6.00;;
4049;SDS011;2039;50.894;6.888;2022-07-10T07:07:25;68.80;;;7.50;;
4049;SDS011;2039;50.894;6.888;2022-07-10T07:09:51;67.80;;;6.20;;
4049;SDS011;2039;50.894;6.888;2022-07-10T07:12:17;69.77;;;7.10;;
4049;SDS011;2039;50.894;6.888;2022-07-10T07:14:43;70.50;;;8.77;;
4049;SDS011;2039;50.894;6.888;2022-07-10T07:17:09;68.00;;;7.87;;
4049;SDS011;2039;50.894;6.888;2022-07-10T07:19:37;68.80;;;8.80;;
4049;SDS011;2039;50.894;6.888;2022-07-10T07:22:22;69.83;;;7.60;;
4049;SDS011;2039;50.894;6.888;2022-07-10T07:25:07;71.07;;;7.50;;
4049;SDS011;2039;50.894;6.888;2022-07-10T07:27:35;69.17;;;7.80;;
4049;SDS011;2039;50.894;6.888;2022-07-10T07:30:05;66.80;;;6.23;;
4049;SDS011;2039;50.894;6.888;2022-07-10T07:32:32;68.53;;;5.83;;
4049;SDS011;2039;50.894;6.888;2022-07-10T07:34:59;68.47;;;7.83;;
4049;SDS011;2039;50.894;6.888;2022-07-10T07:37:35;70.50;;;13.03;;
4049;SDS011;2039;50.894;6.888;2022-07-10T07:40:02;71.03;;;10.00;;
4049;SDS011;2039;50.894;6.888;2022-07-10T07:42:32;69.37;;;8.60;;
4049;SDS011;2039;50.894;6.888;2022-07-10T07:44:57;68.20;;;13.30;;
4049;SDS011;2039;50.894;6.888;2022-07-10T07:47:23;71.37;;;9.87;;
4049;SDS011;2039;50.894;6.888;2022-07-10T07:49:49;69.17;;;7.80;;
4049;SDS011;2039;50.894;6.888;2022-07-10T07:52:15;67.17;;;8.97;;
4049;SDS011;2039;50.894;6.888;2022-07-10T07:54:40;69.27;;;7.17;;
4049;SDS011;2039;50.894;6.888;2022-07-10T07:57:06;68.13;;;7.10;;
4049;SDS011;2039;50.894;6.888;2022-07-10T07:59:32;65.80;;;5.83;;
4049;SDS011;2039;50.894;6.888;2022-07-10T08:01:58;67.77;;;7.03;;
4049;SDS011;2039;50.894;6.888;2022-07-10T08:04:23;69.13;;;7.90;;
4049;SDS011;2039;50.894;6.888;2022-07-10T08:06:49;68.20;;;6.87;;
4049;SDS011;2039;50.894;6.888;2022-07-10T08:09:17;70.23;;;6.30;;
4049;SDS011;2039;50.894;6.888;2022-07-10T08:11:43;68.30;;;8.40;;
4049;SDS011;2039;50.894;6.888;2022-07-10T08:14:09;69.43;;;5.30;;
4049;SDS011;2039;50.894;6.888;2022-07-10T08:16:35;66.27;;;4.80;;
4049;SDS011;2039;50.894;6.888;2022-07-10T08:19:00;68.50;;;4.97;;
4049;SDS011;2039;50.894;6.888;2022-07-10T08:21:26;69.90;;;5.00;;
4049;SDS011;2039;50.894;6.888;2022-07-10T08:23:52;67.27;;;4.50;;
4049;SDS011;2039;50.894;6.888;2022-07-10T08:26:18;68.37;;;5.17;;
4049;SDS011;2039;50.894;6.888;2022-07-10T08:28:44;71.57;;;4.60;;
4049;SDS011;2039;50.894;6.888;2022-07-10T08:31:10;70.90;;;7.60;;
4049;SDS011;2039;50.894;6.888;2022-07-10T08:33:36;67.10;;;6.10;;
4049;SDS011;2039;50.894;6.888;2022-07-10T08:36:02;66.90;;;6.03;;
4049;SDS011;2039;50.894;6.888;2022-07-10T08:38:28;67.97;;;5.73;;
4049;SDS011;2039;50.894;6.888;2022-07-10T08:40:54;69.87;;;6.30;;
4049;SDS011;2039;50.894;6.888;2022-07-10T08:43:24;73.93;;;5.83;;
4049;SDS011;2039;50.894;6.888;2022-07-10T08:45:50;67.60;;;4.37;;
4049;SDS011;2039;50.894;6.888;2022-07-10T08:48:20;66.80;;;4.00;;
4049;SDS011;2039;50.894;6.888;2022-07-10T08:50:53;66.00;;;4.27;;
4049;SDS011;2039;50.894;6.888;2022-07-10T08:53:28;68.60;;;4.37;;
4049;SDS011;2039;50.894;6.888;2022-07-10T08:55:56;67.73;;;3.90;;
4049;SDS011;2039;50.894;6.888;2022-07-10T08:58:28;71.00;;;4.90;;
4049;SDS011;2039;50.894;6.888;2022-07-10T09:00:57;68.67;;;4.53;;
4049;SDS011;2039;50.894;6.888;2022-07-10T09:03:23;70.10;;;4.90;;
4049;SDS011;2039;50.894;6.888;2022-07-10T09:05:49;68.97;;;4.90;;
4049;SDS011;2039;50.894;6.888;2022-07-10T09:08:21;66.00;;;3.90;;
4049;SDS011;2039;50.894;6.888;2022-07-10T09:10:49;66.27;;;3.93;;
4049;SDS011;2039;50.894;6.888;2022-07-10T09:13:25;72.53;;;3.73;;
4049;SDS011;2039;50.894;6.888;2022-07-10T09:16:00;67.70;;;3.57;;
4049;SDS011;2039;50.894;6.888;2022-07-10T09:18:29;69.30;;;4.23;;
4049;SDS011;2039;50.894;6.888;2022-07-10T09:20:55;69.40;;;3.60;;
4049;SDS011;2039;50.894;6.888;2022-07-10T09:23:26;72.20;;;3.60;;
4049;SDS011;2039;50.894;6.888;2022-07-10T09:25:54;65.60;;;3.30;;
4049;SDS011;2039;50.894;6.888;2022-07-10T09:28:41;68.70;;;3.33;;
4049;SDS011;2039;50.894;6.888;2022-07-10T09:31:10;65.77;;;3.47;;
4049;SDS011;2039;50.894;6.888;2022-07-10T09:33:42;69.33;;;4.47;;
4049;SDS011;2039;50.894;6.888;2022-07-10T09:36:08;69.57;;;4.90;;
4049;SDS011;2039;50.894;6.888;2022-07-10T09:38:51;69.33;;;3.60;;
4049;SDS011;2039;50.894;6.888;2022-07-10T09:41:26;68.47;;;3.97;;
4049;SDS011;2039;50.894;6.888;2022-07-10T09:43:54;68.10;;;3.23;;
4049;SDS011;2039;50.894;6.888;2022-07-10T09:49:07;69.43;;;3.70;;
4049;SDS011;2039;50.894;6.888;2022-07-10T09:51:42;66.77;;;4.87;;
4049;SDS011;2039;50.894;6.888;2022-07-10T09:54:10;66.90;;;3.50;;
4049;SDS011;2039;50.894;6.888;2022-07-10T09:56:41;67.60;;;3.63;;
4049;SDS011;2039;50.894;6.888;2022-07-10T09:59:15;65.50;;;2.80;;
4049;SDS011;2039;50.894;6.888;2022-07-10T10:01:49;69.53;;;3.43;;
4049;SDS011;2039;50.894;6.888;2022-07-10T10:04:19;65.37;;;3.03;;
4049;SDS011;2039;50.894;6.888;2022-07-10T10:12:59;70.20;;;4.07;;
4049;SDS011;2039;50.894;6.888;2022-07-10T10:15:27;67.10;;;3.70;;
4049;SDS011;2039;50.894;6.888;2022-07-10T10:18:05;66.00;;;4.67;;
4049;SDS011;2039;50.894;6.888;2022-07-10T10:20:37;69.83;;;5.23;;
4049;SDS011;2039;50.894;6.888;2022-07-10T10:26:38;67.57;;;11.20;;
4049;SDS011;2039;50.894;6.888;2022-07-10T10:29:17;69.63;;;12.57;;
4049;SDS011;2039;50.894;6.888;2022-07-10T10:31:59;70.97;;;14.10;;
4049;SDS011;2039;50.894;6.888;2022-07-10T10:48:07;67.90;;;8.17;;
4049;SDS011;2039;50.894;6.888;2022-07-10T10:57:16;68.70;;;6.57;;
4049;SDS011;2039;50.894;6.888;2022-07-10T11:16:39;67.87;;;4.70;;
4049;SDS011;2039;50.894;6.888;2022-07-10T11:26:02;71.67;;;6.23;;
4049;SDS011;2039;50.894;6.888;2022-07-10T11:32:21;67.60;;;5.60;;
4049;SDS011;2039;50.894;6.888;2022-07-10T12:29:28;70.80;;;10.73;;
4049;SDS011;2039;50.894;6.888;2022-07-10T13:01:44;68.20;;;12.60;;
4049;SDS011;2039;50.894;6.888;2022-07-10T13:30:07;67.70;;;10.20;;
4049;SDS011;2039;50.894;6.888;2022-07-10T13:32:42;68.17;;;10.83;;
4049;SDS011;2039;50.894;6.888;2022-07-10T13:35:37;69.13;;;11.17;;
4049;SDS011;2039;50.894;6.888;2022-07-10T13:42:00;68.00;;;11.10;;
4049;SDS011;2039;50.894;6.888;2022-07-10T13:47:52;76.27;;;12.20;;
4049;SDS011;2039;50.894;6.888;2022-07-10T14:02:57;67.37;;;8.03;;
4049;SDS011;2039;50.894;6.888;2022-07-10T14:20:52;66.40;;;3.93;;
4049;SDS011;2039;50.894;6.888;2022-07-10T14:23:58;66.93;;;4.13;;
4049;SDS011;2039;50.894;6.888;2022-07-10T14:27:12;69.30;;;3.97;;
4049;SDS011;2039;50.894;6.888;2022-07-10T14:30:09;66.97;;;3.77;;
4049;SDS011;2039;50.894;6.888;2022-07-10T14:32:38;67.20;;;3.30;;
4049;SDS011;2039;50.894;6.888;2022-07-10T14:35:07;69.23;;;3.60;;
4049;SDS011;2039;50.894;6.888;2022-07-10T14:37:33;66.77;;;3.10;;
4049;SDS011;2039;50.894;6.888;2022-07-10T14:40:00;72.53;;;7.60;;
4049;SDS011;2039;50.894;6.888;2022-07-10T14:42:25;66.17;;;4.90;;
4049;SDS011;2039;50.894;6.888;2022-07-10T14:44:51;70.17;;;10.10;;
4049;SDS011;2039;50.894;6.888;2022-07-10T14:47:17;69.80;;;8.63;;
4049;SDS011;2039;50.894;6.888;2022-07-10T14:49:42;70.07;;;8.37;;
4049;SDS011;2039;50.894;6.888;2022-07-10T14:52:08;66.50;;;3.90;;
4049;SDS011;2039;50.894;6.888;2022-07-10T14:54:34;66.70;;;4.53;;
4049;SDS011;2039;50.894;6.888;2022-07-10T14:56:59;67.90;;;4.03;;
4049;SDS011;2039;50.894;6.888;2022-07-10T14:59:25;69.90;;;4.33;;
4049;SDS011;2039;50.894;6.888;2022-07-10T15:01:51;68.87;;;3.80;;
4049;SDS011;2039;50.894;6.888;2022-07-10T15:04:16;65.80;;;3.30;;
4049;SDS011;2039;50.894;6.888;2022-07-10T15:06:42;72.97;;;3.90;;
4049;SDS011;2039;50.894;6.888;2022-07-10T15:09:08;67.60;;;4.30;;
4049;SDS011;2039;50.894;6.888;2022-07-10T15:11:33;72.87;;;4.23;;
4049;SDS011;2039;50.894;6.888;2022-07-10T15:14:00;69.50;;;3.83;;
4049;SDS011;2039;50.894;6.888;2022-07-10T15:16:29;66.90;;;3.97;;
4049;SDS011;2039;50.894;6.888;2022-07-10T15:18:55;73.17;;;4.30;;
4049;SDS011;2039;50.894;6.888;2022-07-10T15:21:23;69.17;;;3.83;;
4049;SDS011;2039;50.894;6.888;2022-07-10T15:23:49;68.03;;;3.70;;
4049;SDS011;2039;50.894;6.888;2022-07-10T15:26:15;67.07;;;3.40;;
4049;SDS011;2039;50.894;6.888;2022-07-10T15:28:42;68.20;;;4.30;;
4049;SDS011;2039;50.894;6.888;2022-07-10T15:31:08;68.97;;;4.23;;
4049;SDS011;2039;50.894;6.888;2022-07-10T15:33:36;67.37;;;3.40;;
4049;SDS011;2039;50.894;6.888;2022-07-10T15:36:04;67.63;;;4.20;;
4049;SDS011;2039;50.894;6.888;2022-07-10T15:38:29;67.70;;;4.07;;
4049;SDS011;2039;50.894;6.888;2022-07-10T15:40:55;71.83;;;3.87;;
4049;SDS011;2039;50.894;6.888;2022-07-10T15:43:21;67.00;;;4.23;;
4049;SDS011;2039;50.894;6.888;2022-07-10T15:45:47;67.90;;;4.10;;
4049;SDS011;2039;50.894;6.888;2022-07-10T15:48:13;67.87;;;3.40;;
4049;SDS011;2039;50.894;6.888;2022-07-10T15:50:40;65.60;;;3.90;;
4049;SDS011;2039;50.894;6.888;2022-07-10T15:53:06;66.77;;;3.50;;
4049;SDS011;2039;50.894;6.888;2022-07-10T15:55:35;67.60;;;3.70;;
4049;SDS011;2039;50.894;6.888;2022-07-10T15:58:01;66.40;;;3.53;;
4049;SDS011;2039;50.894;6.888;2022-07-10T16:00:26;66.57;;;5.00;;
4049;SDS011;2039;50.894;6.888;2022-07-10T16:02:52;67.00;;;4.13;;
4049;SDS011;2039;50.894;6.888;2022-07-10T16:05:19;67.10;;;3.43;;
4049;SDS011;2039;50.894;6.888;2022-07-10T16:07:44;65.57;;;3.67;;
4049;SDS011;2039;50.894;6.888;2022-07-10T16:10:11;65.97;;;3.80;;
4049;SDS011;2039;50.894;6.888;2022-07-10T16:12:37;70.83;;;4.20;;
4049;SDS011;2039;50.894;6.888;2022-07-10T16:15:03;67.50;;;3.93;;
4049;SDS011;2039;50.894;6.888;2022-07-10T16:17:29;71.53;;;4.73;;
4049;SDS011;2039;50.894;6.888;2022-07-10T16:19:55;68.80;;;5.23;;
4049;SDS011;2039;50.894;6.888;2022-07-10T16:22:20;69.13;;;4.57;;
4049;SDS011;2039;50.894;6.888;2022-07-10T16:24:46;67.53;;;4.77;;
4049;SDS011;2039;50.894;6.888;2022-07-10T16:27:30;65.50;;;3.90;;
4049;SDS011;2039;50.894;6.888;2022-07-10T16:29:56;66.33;;;3.70;;
4049;SDS011;2039;50.894;6.888;2022-07-10T16:32:22;66.47;;;4.30;;
4049;SDS011;2039;50.894;6.888;2022-07-10T16:34:47;65.40;;;4.17;;
4049;SDS011;2039;50.894;6.888;2022-07-10T16:37:24;67.00;;;4.37;;
4049;SDS011;2039;50.894;6.888;2022-07-10T16:40:05;66.40;;;4.37;;
4049;SDS011;2039;50.894;6.888;2022-07-10T16:42:48;66.13;;;3.73;;
4049;SDS011;2039;50.894;6.888;2022-07-10T16:45:40;69.80;;;4.57;;
4049;SDS011;2039;50.894;6.888;2022-07-10T16:48:10;67.10;;;3.97;;
4049;SDS011;2039;50.894;6.888;2022-07-10T16:50:51;65.93;;;3.30;;
4049;SDS011;2039;50.894;6.888;2022-07-10T16:53:20;66.23;;;4.00;;
4049;SDS011;2039;50.894;6.888;2022-07-10T16:55:54;66.90;;;3.70;;
4049;SDS011;2039;50.894;6.888;2022-07-10T16:58:20;66.20;;;3.50;;
4049;SDS011;2039;50.894;6.888;2022-07-10T17:01:09;66.20;;;3.80;;
4049;SDS011;2039;50.894;6.888;2022-07-10T17:04:08;66.40;;;3.37;;
4049;SDS011;2039;50.894;6.888;2022-07-10T17:13:11;66.50;;;3.70;;
4049;SDS011;2039;50.894;6.888;2022-07-10T17:16:16;67.07;;;3.83;;
4049;SDS011;2039;50.894;6.888;2022-07-10T17:22:16;67.73;;;4.37;;
4049;SDS011;2039;50.894;6.888;2022-07-10T17:24:50;65.57;;;3.67;;
4049;SDS011;2039;50.894;6.888;2022-07-10T17:28:09;66.63;;;4.43;;
4049;SDS011;2039;50.894;6.888;2022-07-10T17:30:41;66.97;;;4.40;;
4049;SDS011;2039;50.894;6.888;2022-07-10T17:33:52;66.97;;;3.60;;
4049;SDS011;2039;50.894;6.888;2022-07-10T17:37:22;65.80;;;4.27;;
4049;SDS011;2039;50.894;6.888;2022-07-10T17:42:54;67.50;;;5.60;;
4049;SDS011;2039;50.894;6.888;2022-07-10T17:45:49;67.90;;;5.40;;
4049;SDS011;2039;50.894;6.888;2022-07-10T17:49:02;68.50;;;4.00;;
4049;SDS011;2039;50.894;6.888;2022-07-10T17:51:44;71.60;;;5.23;;
4049;SDS011;2039;50.894;6.888;2022-07-10T17:54:46;67.40;;;4.40;;
4049;SDS011;2039;50.894;6.888;2022-07-10T17:57:35;69.63;;;4.50;;
4049;SDS011;2039;50.894;6.888;2022-07-10T18:06:33;66.57;;;6.30;;
4049;SDS011;2039;50.894;6.888;2022-07-10T18:09:12;66.67;;;5.83;;
4049;SDS011;2039;50.894;6.888;2022-07-10T18:14:49;69.50;;;6.97;;
4049;SDS011;2039;50.894;6.888;2022-07-10T18:17:16;66.90;;;6.43;;
4049;SDS011;2039;50.894;6.888;2022-07-10T18:20:01;67.50;;;7.67;;
4049;SDS011;2039;50.894;6.888;2022-07-10T18:23:13;71.00;;;6.60;;
4049;SDS011;2039;50.894;6.888;2022-07-10T18:29:10;66.90;;;5.57;;
4049;SDS011;2039;50.894;6.888;2022-07-10T18:32:07;66.47;;;7.00;;
4049;SDS011;2039;50.894;6.888;2022-07-10T18:37:33;66.80;;;6.60;;
4049;SDS011;2039;50.894;6.888;2022-07-10T18:40:11;66.87;;;6.30;;
4049;SDS011;2039;50.894;6.888;2022-07-10T18:46:25;69.30;;;7.30;;
4049;SDS011;2039;50.894;6.888;2022-07-10T18:48:52;67.97;;;7.47;;
4049;SDS011;2039;50.894;6.888;2022-07-10T18:51:29;68.40;;;7.27;;
4049;SDS011;2039;50.894;6.888;2022-07-10T18:54:03;68.17;;;7.20;;
4049;SDS011;2039;50.894;6.888;2022-07-10T18:56:29;67.37;;;7.10;;
4049;SDS011;2039;50.894;6.888;2022-07-10T18:58:55;67.20;;;8.10;;
4049;SDS011;2039;50.894;6.888;2022-07-10T19:01:50;67.33;;;6.23;;
4049;SDS011;2039;50.894;6.888;2022-07-10T19:04:35;66.77;;;6.13;;
4049;SDS011;2039;50.894;6.888;2022-07-10T19:07:07;68.50;;;7.10;;
4049;SDS011;2039;50.894;6.888;2022-07-10T19:09:51;67.47;;;8.33;;
4049;SDS011;2039;50.894;6.888;2022-07-10T19:15:53;70.60;;;10.30;;
4049;SDS011;2039;50.894;6.888;2022-07-10T19:18:57;68.50;;;12.27;;